sensor_id;sensor_type;location;lat;lon;timestamp;P1;durP1;ratioP1;P2;durP2;ratioP2
65667;SDS011;52369;52.542;13.232;2024-03-02T00:00:12;43.80;;;23.60;;
65667;SDS011;52369;52.542;13.232;2024-03-02T00:02:44;45.00;;;25.27;;
65667;SDS011;52369;52.542;13.232;2024-03-02T00:05:11;45.63;;;23.63;;
65667;SDS011;52369;52.542;13.232;2024-03-02T00:07:37;46.72;;;23.63;;
65667;SDS011;52369;52.542;13.232;2024-03-02T00:10:08;48.05;;;24.95;;
65667;SDS011;52369;52.542;13.232;2024-03-02T00:12:37;51.63;;;25.90;;
65667;SDS011;52369;52.542;13.232;2024-03-02T00:15:15;49.53;;;24.30;;
65667;SDS011;52369;52.542;13.232;2024-03-02T00:17:44;49.22;;;25.55;;
65667;SDS011;52369;52.542;13.232;2024-03-02T00:20:11;45.97;;;24.02;;
65667;SDS011;52369;52.542;13.232;2024-03-02T00:22:41;47.50;;;24.20;;
65667;SDS011;52369;52.542;13.232;2024-03-02T00:25:07;47.60;;;24.48;;
65667;SDS011;52369;52.542;13.232;2024-03-02T00:27:35;47.80;;;24.35;;
65667;SDS011;52369;52.542;13.232;2024-03-02T00:30:01;47.63;;;24.02;;
65667;SDS011;52369;52.542;13.232;2024-03-02T00:32:31;50.05;;;23.98;;
65667;SDS011;52369;52.542;13.232;2024-03-02T00:34:59;49.58;;;24.15;;
65667;SDS011;52369;52.542;13.232;2024-03-02T00:37:25;49.58;;;23.88;;
65667;SDS011;52369;52.542;13.232;2024-03-02T00:39:51;44.20;;;23.00;;
65667;SDS011;52369;52.542;13.232;2024-03-02T00:42:17;52.85;;;25.92;;
65667;SDS011;52369;52.542;13.232;2024-03-02T00:44:43;52.35;;;25.08;;
65667;SDS011;52369;52.542;13.232;2024-03-02T00:47:09;52.17;;;25.80;;
65667;SDS011;52369;52.542;13.232;2024-03-02T00:49:35;46.95;;;23.52;;
65667;SDS011;52369;52.542;13.232;2024-03-02T00:52:01;57.83;;;26.35;;
65667;SDS011;52369;52.542;13.232;2024-03-02T00:54:28;50.75;;;24.98;;
65667;SDS011;52369;52.542;13.232;2024-03-02T00:56:55;48.97;;;23.02;;
65667;SDS011;52369;52.542;13.232;2024-03-02T00:59:22;47.80;;;23.38;;
65667;SDS011;52369;52.542;13.232;2024-03-02T01:01:48;48.40;;;25.00;;
65667;SDS011;52369;52.542;13.232;2024-03-02T01:04:14;48.65;;;24.58;;
65667;SDS011;52369;52.542;13.232;2024-03-02T01:06:41;45.17;;;24.20;;
65667;SDS011;52369;52.542;13.232;2024-03-02T01:09:07;46.70;;;24.75;;
65667;SDS011;52369;52.542;13.232;2024-03-02T01:11:33;52.13;;;27.52;;
65667;SDS011;52369;52.542;13.232;2024-03-02T01:13:59;49.90;;;25.50;;
65667;SDS011;52369;52.542;13.232;2024-03-02T01:16:25;48.97;;;25.42;;
65667;SDS011;52369;52.542;13.232;2024-03-02T01:18:51;51.78;;;25.55;;
65667;SDS011;52369;52.542;13.232;2024-03-02T01:21:17;54.97;;;26.25;;
65667;SDS011;52369;52.542;13.232;2024-03-02T01:23:43;54.13;;;24.75;;
65667;SDS011;52369;52.542;13.232;2024-03-02T01:26:09;47.42;;;24.48;;
65667;SDS011;52369;52.542;13.232;2024-03-02T01:28:35;53.22;;;25.60;;
65667;SDS011;52369;52.542;13.232;2024-03-02T01:31:01;48.70;;;24.80;;
65667;SDS011;52369;52.542;13.232;2024-03-02T01:33:27;49.13;;;23.63;;
65667;SDS011;52369;52.542;13.232;2024-03-02T01:35:54;53.90;;;25.33;;
65667;SDS011;52369;52.542;13.232;2024-03-02T01:38:20;51.35;;;26.70;;
65667;SDS011;52369;52.542;13.232;2024-03-02T01:40:46;55.25;;;26.95;;
65667;SDS011;52369;52.542;13.232;2024-03-02T01:43:12;59.47;;;27.67;;
65667;SDS011;52369;52.542;13.232;2024-03-02T01:45:38;59.50;;;28.15;;
65667;SDS011;52369;52.542;13.232;2024-03-02T01:48:05;65.57;;;29.00;;
65667;SDS011;52369;52.542;13.232;2024-03-02T01:50:32;56.58;;;26.88;;
65667;SDS011;52369;52.542;13.232;2024-03-02T01:52:58;59.28;;;28.20;;
65667;SDS011;52369;52.542;13.232;2024-03-02T01:55:25;62.78;;;28.73;;
65667;SDS011;52369;52.542;13.232;2024-03-02T01:57:52;67.93;;;30.13;;
65667;SDS011;52369;52.542;13.232;2024-03-02T02:00:19;64.95;;;29.23;;
65667;SDS011;52369;52.542;13.232;2024-03-02T02:02:51;62.80;;;27.03;;
65667;SDS011;52369;52.542;13.232;2024-03-02T02:05:17;64.20;;;29.00;;
65667;SDS011;52369;52.542;13.232;2024-03-02T02:07:43;66.25;;;29.58;;
65667;SDS011;52369;52.542;13.232;2024-03-02T02:10:10;69.05;;;29.02;;
65667;SDS011;52369;52.542;13.232;2024-03-02T02:12:36;66.75;;;29.65;;
65667;SDS011;52369;52.542;13.232;2024-03-02T02:15:03;62.33;;;28.30;;
65667;SDS011;52369;52.542;13.232;2024-03-02T02:17:30;61.40;;;29.02;;
65667;SDS011;52369;52.542;13.232;2024-03-02T02:19:56;57.85;;;27.85;;
65667;SDS011;52369;52.542;13.232;2024-03-02T02:22:22;61.63;;;27.98;;
65667;SDS011;52369;52.542;13.232;2024-03-02T02:24:49;64.95;;;29.98;;
65667;SDS011;52369;52.542;13.232;2024-03-02T02:27:15;62.33;;;28.92;;
65667;SDS011;52369;52.542;13.232;2024-03-02T02:29:41;66.55;;;30.02;;
65667;SDS011;52369;52.542;13.232;2024-03-02T02:32:07;60.67;;;28.52;;
65667;SDS011;52369;52.542;13.232;2024-03-02T02:34:33;63.95;;;28.73;;
65667;SDS011;52369;52.542;13.232;2024-03-02T02:36:59;54.78;;;27.70;;
65667;SDS011;52369;52.542;13.232;2024-03-02T02:39:25;54.22;;;27.42;;
65667;SDS011;52369;52.542;13.232;2024-03-02T02:41:52;65.57;;;29.33;;
65667;SDS011;52369;52.542;13.232;2024-03-02T02:44:18;61.00;;;28.00;;
65667;SDS011;52369;52.542;13.232;2024-03-02T02:46:44;56.28;;;28.33;;
65667;SDS011;52369;52.542;13.232;2024-03-02T02:49:10;58.65;;;28.13;;
65667;SDS011;52369;52.542;13.232;2024-03-02T02:51:36;56.60;;;28.02;;
65667;SDS011;52369;52.542;13.232;2024-03-02T02:54:02;52.80;;;27.52;;
65667;SDS011;52369;52.542;13.232;2024-03-02T02:56:28;54.90;;;28.20;;
65667;SDS011;52369;52.542;13.232;2024-03-02T02:58:54;56.97;;;27.73;;
65667;SDS011;52369;52.542;13.232;2024-03-02T03:01:20;62.15;;;27.20;;
65667;SDS011;52369;52.542;13.232;2024-03-02T03:03:46;56.95;;;27.77;;
65667;SDS011;52369;52.542;13.232;2024-03-02T03:06:12;56.00;;;29.08;;
65667;SDS011;52369;52.542;13.232;2024-03-02T03:08:38;60.00;;;29.95;;
65667;SDS011;52369;52.542;13.232;2024-03-02T03:11:04;54.53;;;28.27;;
65667;SDS011;52369;52.542;13.232;2024-03-02T03:13:31;57.22;;;28.63;;
65667;SDS011;52369;52.542;13.232;2024-03-02T03:15:57;56.20;;;28.02;;
65667;SDS011;52369;52.542;13.232;2024-03-02T03:18:23;54.25;;;27.23;;
65667;SDS011;52369;52.542;13.232;2024-03-02T03:20:49;57.30;;;27.35;;
65667;SDS011;52369;52.542;13.232;2024-03-02T03:23:15;55.03;;;27.75;;
65667;SDS011;52369;52.542;13.232;2024-03-02T03:25:42;56.10;;;28.20;;
65667;SDS011;52369;52.542;13.232;2024-03-02T03:28:08;55.72;;;28.23;;
65667;SDS011;52369;52.542;13.232;2024-03-02T03:30:37;57.25;;;28.70;;
65667;SDS011;52369;52.542;13.232;2024-03-02T03:33:04;53.22;;;27.27;;
65667;SDS011;52369;52.542;13.232;2024-03-02T03:35:33;55.63;;;27.17;;
65667;SDS011;52369;52.542;13.232;2024-03-02T03:37:59;55.25;;;27.50;;
65667;SDS011;52369;52.542;13.232;2024-03-02T03:40:26;56.83;;;27.52;;
65667;SDS011;52369;52.542;13.232;2024-03-02T03:42:52;53.92;;;26.75;;
65667;SDS011;52369;52.542;13.232;2024-03-02T03:45:18;52.83;;;27.05;;
65667;SDS011;52369;52.542;13.232;2024-03-02T03:47:45;49.20;;;25.85;;
65667;SDS011;52369;52.542;13.232;2024-03-02T03:50:11;55.00;;;26.58;;
65667;SDS011;52369;52.542;13.232;2024-03-02T03:52:37;53.30;;;27.52;;
65667;SDS011;52369;52.542;13.232;2024-03-02T03:55:03;58.03;;;27.15;;
65667;SDS011;52369;52.542;13.232;2024-03-02T03:57:30;51.65;;;27.17;;
65667;SDS011;52369;52.542;13.232;2024-03-02T03:59:56;50.85;;;26.88;;
65667;SDS011;52369;52.542;13.232;2024-03-02T04:02:22;55.67;;;27.90;;
65667;SDS011;52369;52.542;13.232;2024-03-02T04:04:49;54.60;;;28.05;;
65667;SDS011;52369;52.542;13.232;2024-03-02T04:07:16;51.25;;;25.80;;
65667;SDS011;52369;52.542;13.232;2024-03-02T04:09:42;51.10;;;26.98;;
65667;SDS011;52369;52.542;13.232;2024-03-02T04:12:08;48.50;;;26.17;;
65667;SDS011;52369;52.542;13.232;2024-03-02T04:14:34;54.25;;;26.40;;
65667;SDS011;52369;52.542;13.232;2024-03-02T04:17:00;52.80;;;26.90;;
65667;SDS011;52369;52.542;13.232;2024-03-02T04:19:26;46.90;;;25.60;;
65667;SDS011;52369;52.542;13.232;2024-03-02T04:21:52;50.42;;;25.08;;
65667;SDS011;52369;52.542;13.232;2024-03-02T04:24:18;50.80;;;26.33;;
65667;SDS011;52369;52.542;13.232;2024-03-02T04:26:44;50.33;;;27.15;;
65667;SDS011;52369;52.542;13.232;2024-03-02T04:29:10;48.20;;;25.98;;
65667;SDS011;52369;52.542;13.232;2024-03-02T04:31:36;48.55;;;25.75;;
65667;SDS011;52369;52.542;13.232;2024-03-02T04:34:02;47.10;;;25.42;;
65667;SDS011;52369;52.542;13.232;2024-03-02T04:36:28;53.40;;;26.10;;
65667;SDS011;52369;52.542;13.232;2024-03-02T04:38:54;50.35;;;26.08;;
65667;SDS011;52369;52.542;13.232;2024-03-02T04:41:20;52.28;;;25.70;;
65667;SDS011;52369;52.542;13.232;2024-03-02T04:43:46;51.40;;;26.83;;
65667;SDS011;52369;52.542;13.232;2024-03-02T04:46:12;48.28;;;25.90;;
65667;SDS011;52369;52.542;13.232;2024-03-02T04:48:38;48.80;;;24.98;;
65667;SDS011;52369;52.542;13.232;2024-03-02T04:51:04;52.25;;;25.48;;
65667;SDS011;52369;52.542;13.232;2024-03-02T04:53:30;52.33;;;25.85;;
65667;SDS011;52369;52.542;13.232;2024-03-02T04:55:56;48.53;;;26.08;;
65667;SDS011;52369;52.542;13.232;2024-03-02T04:58:41;46.20;;;24.52;;
65667;SDS011;52369;52.542;13.232;2024-03-02T05:01:07;47.83;;;24.83;;
65667;SDS011;52369;52.542;13.232;2024-03-02T05:03:33;50.15;;;25.58;;
65667;SDS011;52369;52.542;13.232;2024-03-02T05:05:59;47.35;;;25.48;;
65667;SDS011;52369;52.542;13.232;2024-03-02T05:08:26;46.10;;;24.73;;
65667;SDS011;52369;52.542;13.232;2024-03-02T05:10:52;47.65;;;25.02;;
65667;SDS011;52369;52.542;13.232;2024-03-02T05:13:18;47.83;;;25.63;;
65667;SDS011;52369;52.542;13.232;2024-03-02T05:15:45;49.00;;;25.40;;
65667;SDS011;52369;52.542;13.232;2024-03-02T05:18:12;52.13;;;25.75;;
65667;SDS011;52369;52.542;13.232;2024-03-02T05:20:38;48.33;;;26.88;;
65667;SDS011;52369;52.542;13.232;2024-03-02T05:23:04;50.95;;;24.27;;
65667;SDS011;52369;52.542;13.232;2024-03-02T05:25:30;51.63;;;25.40;;
65667;SDS011;52369;52.542;13.232;2024-03-02T05:27:57;49.22;;;25.63;;
65667;SDS011;52369;52.542;13.232;2024-03-02T05:30:23;52.67;;;25.52;;
65667;SDS011;52369;52.542;13.232;2024-03-02T05:32:51;49.78;;;25.35;;
65667;SDS011;52369;52.542;13.232;2024-03-02T05:35:17;49.65;;;25.52;;
65667;SDS011;52369;52.542;13.232;2024-03-02T05:37:43;51.33;;;26.10;;
65667;SDS011;52369;52.542;13.232;2024-03-02T05:40:09;49.80;;;24.58;;
65667;SDS011;52369;52.542;13.232;2024-03-02T05:42:36;53.72;;;25.98;;
65667;SDS011;52369;52.542;13.232;2024-03-02T05:45:02;48.33;;;25.75;;
65667;SDS011;52369;52.542;13.232;2024-03-02T05:47:28;53.53;;;26.55;;
65667;SDS011;52369;52.542;13.232;2024-03-02T05:49:54;53.78;;;27.17;;
65667;SDS011;52369;52.542;13.232;2024-03-02T05:52:20;54.75;;;26.63;;
65667;SDS011;52369;52.542;13.232;2024-03-02T05:54:46;53.55;;;27.48;;
65667;SDS011;52369;52.542;13.232;2024-03-02T05:57:13;48.10;;;25.30;;
65667;SDS011;52369;52.542;13.232;2024-03-02T05:59:56;53.42;;;24.33;;
65667;SDS011;52369;52.542;13.232;2024-03-02T06:02:22;52.13;;;25.52;;
65667;SDS011;52369;52.542;13.232;2024-03-02T06:04:49;55.15;;;27.23;;
65667;SDS011;52369;52.542;13.232;2024-03-02T06:07:15;52.85;;;25.23;;
65667;SDS011;52369;52.542;13.232;2024-03-02T06:09:41;49.83;;;25.15;;
65667;SDS011;52369;52.542;13.232;2024-03-02T06:12:07;51.80;;;26.45;;
65667;SDS011;52369;52.542;13.232;2024-03-02T06:14:33;47.92;;;25.58;;
65667;SDS011;52369;52.542;13.232;2024-03-02T06:16:59;56.50;;;25.88;;
65667;SDS011;52369;52.542;13.232;2024-03-02T06:19:25;55.45;;;25.25;;
65667;SDS011;52369;52.542;13.232;2024-03-02T06:21:52;47.15;;;25.73;;
65667;SDS011;52369;52.542;13.232;2024-03-02T06:24:18;49.67;;;24.77;;
65667;SDS011;52369;52.542;13.232;2024-03-02T06:26:44;49.85;;;26.13;;
65667;SDS011;52369;52.542;13.232;2024-03-02T06:29:10;54.65;;;26.17;;
65667;SDS011;52369;52.542;13.232;2024-03-02T06:31:36;49.33;;;26.02;;
65667;SDS011;52369;52.542;13.232;2024-03-02T06:34:02;52.30;;;24.58;;
65667;SDS011;52369;52.542;13.232;2024-03-02T06:36:29;50.30;;;25.25;;
65667;SDS011;52369;52.542;13.232;2024-03-02T06:38:55;49.35;;;25.33;;
65667;SDS011;52369;52.542;13.232;2024-03-02T06:41:21;52.85;;;25.50;;
65667;SDS011;52369;52.542;13.232;2024-03-02T06:43:47;50.97;;;25.23;;
65667;SDS011;52369;52.542;13.232;2024-03-02T06:46:14;50.72;;;25.98;;
65667;SDS011;52369;52.542;13.232;2024-03-02T06:48:40;47.88;;;24.48;;
65667;SDS011;52369;52.542;13.232;2024-03-02T06:51:06;51.55;;;25.55;;
65667;SDS011;52369;52.542;13.232;2024-03-02T06:53:32;51.67;;;24.90;;
65667;SDS011;52369;52.542;13.232;2024-03-02T06:55:58;49.40;;;24.83;;
65667;SDS011;52369;52.542;13.232;2024-03-02T06:58:24;45.97;;;23.85;;
65667;SDS011;52369;52.542;13.232;2024-03-02T07:00:51;54.85;;;24.65;;
65667;SDS011;52369;52.542;13.232;2024-03-02T07:03:17;49.17;;;23.83;;
65667;SDS011;52369;52.542;13.232;2024-03-02T07:05:43;50.33;;;24.80;;
65667;SDS011;52369;52.542;13.232;2024-03-02T07:08:09;51.20;;;25.77;;
65667;SDS011;52369;52.542;13.232;2024-03-02T07:10:35;48.35;;;23.27;;
65667;SDS011;52369;52.542;13.232;2024-03-02T07:13:01;51.33;;;24.95;;
65667;SDS011;52369;52.542;13.232;2024-03-02T07:15:28;46.72;;;23.83;;
65667;SDS011;52369;52.542;13.232;2024-03-02T07:18:12;48.10;;;24.58;;
65667;SDS011;52369;52.542;13.232;2024-03-02T07:20:38;50.58;;;24.70;;
65667;SDS011;52369;52.542;13.232;2024-03-02T07:23:04;46.97;;;22.98;;
65667;SDS011;52369;52.542;13.232;2024-03-02T07:25:31;49.15;;;23.77;;
65667;SDS011;52369;52.542;13.232;2024-03-02T07:27:57;53.03;;;25.83;;
65667;SDS011;52369;52.542;13.232;2024-03-02T07:30:23;47.50;;;23.05;;
65667;SDS011;52369;52.542;13.232;2024-03-02T07:32:52;46.83;;;23.15;;
65667;SDS011;52369;52.542;13.232;2024-03-02T07:35:18;43.47;;;22.73;;
65667;SDS011;52369;52.542;13.232;2024-03-02T07:37:44;44.72;;;22.55;;
65667;SDS011;52369;52.542;13.232;2024-03-02T07:40:10;48.58;;;22.83;;
65667;SDS011;52369;52.542;13.232;2024-03-02T07:42:37;47.60;;;24.77;;
65667;SDS011;52369;52.542;13.232;2024-03-02T07:45:04;50.85;;;23.05;;
65667;SDS011;52369;52.542;13.232;2024-03-02T07:47:31;47.53;;;24.42;;
65667;SDS011;52369;52.542;13.232;2024-03-02T07:49:57;50.40;;;25.20;;
65667;SDS011;52369;52.542;13.232;2024-03-02T07:52:23;49.42;;;24.05;;
65667;SDS011;52369;52.542;13.232;2024-03-02T07:54:49;47.85;;;23.30;;
65667;SDS011;52369;52.542;13.232;2024-03-02T07:57:16;49.58;;;24.85;;
65667;SDS011;52369;52.542;13.232;2024-03-02T07:59:42;53.33;;;24.65;;
65667;SDS011;52369;52.542;13.232;2024-03-02T08:02:08;45.47;;;24.02;;
65667;SDS011;52369;52.542;13.232;2024-03-02T08:04:34;48.70;;;23.05;;
65667;SDS011;52369;52.542;13.232;2024-03-02T08:07:01;51.15;;;24.70;;
65667;SDS011;52369;52.542;13.232;2024-03-02T08:09:28;49.30;;;25.17;;
65667;SDS011;52369;52.542;13.232;2024-03-02T08:11:55;46.33;;;24.77;;
65667;SDS011;52369;52.542;13.232;2024-03-02T08:14:22;47.47;;;23.42;;
65667;SDS011;52369;52.542;13.232;2024-03-02T08:16:48;54.75;;;25.00;;
65667;SDS011;52369;52.542;13.232;2024-03-02T08:19:14;50.45;;;24.60;;
65667;SDS011;52369;52.542;13.232;2024-03-02T08:21:41;54.60;;;24.85;;
65667;SDS011;52369;52.542;13.232;2024-03-02T08:24:08;48.13;;;24.15;;
65667;SDS011;52369;52.542;13.232;2024-03-02T08:26:34;49.03;;;24.13;;
65667;SDS011;52369;52.542;13.232;2024-03-02T08:29:00;46.08;;;23.05;;
65667;SDS011;52369;52.542;13.232;2024-03-02T08:31:28;48.45;;;23.70;;
65667;SDS011;52369;52.542;13.232;2024-03-02T08:33:54;49.13;;;25.13;;
65667;SDS011;52369;52.542;13.232;2024-03-02T08:36:21;50.65;;;23.58;;
65667;SDS011;52369;52.542;13.232;2024-03-02T08:38:48;52.55;;;23.90;;
65667;SDS011;52369;52.542;13.232;2024-03-02T08:41:14;51.60;;;24.60;;
65667;SDS011;52369;52.542;13.232;2024-03-02T08:43:41;48.28;;;23.30;;
65667;SDS011;52369;52.542;13.232;2024-03-02T08:46:07;46.83;;;23.77;;
65667;SDS011;52369;52.542;13.232;2024-03-02T08:48:34;54.35;;;24.90;;
65667;SDS011;52369;52.542;13.232;2024-03-02T08:51:00;48.83;;;25.17;;
65667;SDS011;52369;52.542;13.232;2024-03-02T08:53:26;45.75;;;23.10;;
65667;SDS011;52369;52.542;13.232;2024-03-02T08:55:52;49.03;;;23.88;;
65667;SDS011;52369;52.542;13.232;2024-03-02T08:58:20;47.67;;;23.27;;
65667;SDS011;52369;52.542;13.232;2024-03-02T09:00:46;46.50;;;23.95;;
65667;SDS011;52369;52.542;13.232;2024-03-02T09:03:12;45.25;;;22.70;;
65667;SDS011;52369;52.542;13.232;2024-03-02T09:05:39;46.97;;;22.77;;
65667;SDS011;52369;52.542;13.232;2024-03-02T09:08:05;42.85;;;22.50;;
65667;SDS011;52369;52.542;13.232;2024-03-02T09:10:32;44.22;;;23.10;;
65667;SDS011;52369;52.542;13.232;2024-03-02T09:12:58;48.88;;;22.88;;
65667;SDS011;52369;52.542;13.232;2024-03-02T09:15:24;46.28;;;22.52;;
65667;SDS011;52369;52.542;13.232;2024-03-02T09:17:50;48.42;;;23.15;;
65667;SDS011;52369;52.542;13.232;2024-03-02T09:20:17;45.22;;;23.35;;
65667;SDS011;52369;52.542;13.232;2024-03-02T09:22:42;42.50;;;23.13;;
65667;SDS011;52369;52.542;13.232;2024-03-02T09:25:09;46.47;;;22.85;;
65667;SDS011;52369;52.542;13.232;2024-03-02T09:27:38;47.67;;;22.27;;
65667;SDS011;52369;52.542;13.232;2024-03-02T09:30:07;46.80;;;23.02;;
65667;SDS011;52369;52.542;13.232;2024-03-02T09:32:35;44.60;;;22.77;;
65667;SDS011;52369;52.542;13.232;2024-03-02T09:35:01;45.58;;;22.20;;
65667;SDS011;52369;52.542;13.232;2024-03-02T09:37:27;46.08;;;23.40;;
65667;SDS011;52369;52.542;13.232;2024-03-02T09:39:53;45.08;;;21.88;;
65667;SDS011;52369;52.542;13.232;2024-03-02T09:42:20;42.30;;;22.38;;
65667;SDS011;52369;52.542;13.232;2024-03-02T09:44:46;38.08;;;19.77;;
65667;SDS011;52369;52.542;13.232;2024-03-02T09:47:12;41.80;;;21.67;;
65667;SDS011;52369;52.542;13.232;2024-03-02T09:49:39;40.50;;;19.88;;
65667;SDS011;52369;52.542;13.232;2024-03-02T09:52:05;44.80;;;21.02;;
65667;SDS011;52369;52.542;13.232;2024-03-02T09:54:32;42.15;;;20.90;;
65667;SDS011;52369;52.542;13.232;2024-03-02T09:56:58;40.42;;;19.73;;
65667;SDS011;52369;52.542;13.232;2024-03-02T09:59:26;40.53;;;20.23;;
65667;SDS011;52369;52.542;13.232;2024-03-02T10:01:59;41.50;;;20.35;;
65667;SDS011;52369;52.542;13.232;2024-03-02T10:04:26;40.38;;;20.63;;
65667;SDS011;52369;52.542;13.232;2024-03-02T10:09:37;38.80;;;20.33;;
65667;SDS011;52369;52.542;13.232;2024-03-02T10:12:07;37.67;;;19.98;;
65667;SDS011;52369;52.542;13.232;2024-03-02T10:14:33;41.67;;;19.58;;
65667;SDS011;52369;52.542;13.232;2024-03-02T10:17:03;35.58;;;19.15;;
65667;SDS011;52369;52.542;13.232;2024-03-02T10:19:29;37.75;;;19.33;;
65667;SDS011;52369;52.542;13.232;2024-03-02T10:22:00;36.75;;;18.30;;
65667;SDS011;52369;52.542;13.232;2024-03-02T10:24:27;37.08;;;17.85;;
65667;SDS011;52369;52.542;13.232;2024-03-02T10:26:53;38.33;;;18.67;;
65667;SDS011;52369;52.542;13.232;2024-03-02T10:29:21;37.33;;;18.33;;
65667;SDS011;52369;52.542;13.232;2024-03-02T10:31:47;36.20;;;18.20;;
65667;SDS011;52369;52.542;13.232;2024-03-02T10:34:13;33.40;;;17.13;;
65667;SDS011;52369;52.542;13.232;2024-03-02T10:36:41;34.45;;;17.58;;
65667;SDS011;52369;52.542;13.232;2024-03-02T10:39:08;29.95;;;16.48;;
65667;SDS011;52369;52.542;13.232;2024-03-02T10:41:37;31.90;;;17.52;;
65667;SDS011;52369;52.542;13.232;2024-03-02T10:44:07;30.15;;;16.75;;
65667;SDS011;52369;52.542;13.232;2024-03-02T10:46:34;32.03;;;17.05;;
65667;SDS011;52369;52.542;13.232;2024-03-02T10:49:01;28.65;;;16.35;;
65667;SDS011;52369;52.542;13.232;2024-03-02T10:51:29;31.40;;;15.60;;
65667;SDS011;52369;52.542;13.232;2024-03-02T10:53:59;28.25;;;15.88;;
65667;SDS011;52369;52.542;13.232;2024-03-02T10:56:32;29.65;;;15.13;;
65667;SDS011;52369;52.542;13.232;2024-03-02T10:59:02;28.27;;;15.25;;
65667;SDS011;52369;52.542;13.232;2024-03-02T11:01:29;27.58;;;15.45;;
65667;SDS011;52369;52.542;13.232;2024-03-02T11:03:56;26.15;;;14.27;;
65667;SDS011;52369;52.542;13.232;2024-03-02T11:06:22;31.65;;;15.23;;
65667;SDS011;52369;52.542;13.232;2024-03-02T11:08:48;33.08;;;15.75;;
65667;SDS011;52369;52.542;13.232;2024-03-02T11:11:15;28.05;;;15.02;;
65667;SDS011;52369;52.542;13.232;2024-03-02T11:13:47;26.67;;;14.85;;
65667;SDS011;52369;52.542;13.232;2024-03-02T11:18:47;28.98;;;15.43;;
65667;SDS011;52369;52.542;13.232;2024-03-02T11:21:14;32.90;;;15.48;;
65667;SDS011;52369;52.542;13.232;2024-03-02T11:23:41;27.60;;;14.18;;
65667;SDS011;52369;52.542;13.232;2024-03-02T11:26:16;26.35;;;14.63;;
65667;SDS011;52369;52.542;13.232;2024-03-02T11:28:43;31.85;;;16.45;;
65667;SDS011;52369;52.542;13.232;2024-03-02T11:31:09;27.23;;;15.77;;
65667;SDS011;52369;52.542;13.232;2024-03-02T11:33:35;29.85;;;16.13;;
65667;SDS011;52369;52.542;13.232;2024-03-02T11:36:01;29.20;;;14.70;;
65667;SDS011;52369;52.542;13.232;2024-03-02T11:38:27;27.35;;;14.93;;
65667;SDS011;52369;52.542;13.232;2024-03-02T11:40:54;30.30;;;15.52;;
65667;SDS011;52369;52.542;13.232;2024-03-02T11:43:20;26.83;;;15.23;;
65667;SDS011;52369;52.542;13.232;2024-03-02T11:45:46;29.13;;;14.52;;
65667;SDS011;52369;52.542;13.232;2024-03-02T11:48:15;27.65;;;14.90;;
65667;SDS011;52369;52.542;13.232;2024-03-02T11:50:42;28.60;;;15.80;;
65667;SDS011;52369;52.542;13.232;2024-03-02T11:53:09;28.27;;;14.43;;
65667;SDS011;52369;52.542;13.232;2024-03-02T11:55:38;27.70;;;14.32;;
65667;SDS011;52369;52.542;13.232;2024-03-02T11:58:11;24.35;;;14.38;;
65667;SDS011;52369;52.542;13.232;2024-03-02T12:00:37;29.40;;;14.15;;
65667;SDS011;52369;52.542;13.232;2024-03-02T12:03:04;29.63;;;14.73;;
65667;SDS011;52369;52.542;13.232;2024-03-02T12:05:31;28.08;;;15.38;;
65667;SDS011;52369;52.542;13.232;2024-03-02T12:07:58;27.05;;;14.07;;
65667;SDS011;52369;52.542;13.232;2024-03-02T12:10:25;26.80;;;14.10;;
65667;SDS011;52369;52.542;13.232;2024-03-02T12:12:57;26.42;;;13.88;;
65667;SDS011;52369;52.542;13.232;2024-03-02T12:17:52;24.67;;;13.20;;
65667;SDS011;52369;52.542;13.232;2024-03-02T12:20:18;26.13;;;13.55;;
65667;SDS011;52369;52.542;13.232;2024-03-02T12:22:44;23.88;;;13.20;;
65667;SDS011;52369;52.542;13.232;2024-03-02T12:25:11;25.30;;;13.43;;
65667;SDS011;52369;52.542;13.232;2024-03-02T12:27:38;26.95;;;14.70;;
65667;SDS011;52369;52.542;13.232;2024-03-02T12:30:05;23.88;;;12.90;;
65667;SDS011;52369;52.542;13.232;2024-03-02T12:32:33;25.90;;;13.20;;
65667;SDS011;52369;52.542;13.232;2024-03-02T12:34:59;23.13;;;13.23;;
65667;SDS011;52369;52.542;13.232;2024-03-02T12:37:25;25.42;;;13.80;;
65667;SDS011;52369;52.542;13.232;2024-03-02T12:39:53;21.45;;;12.15;;
65667;SDS011;52369;52.542;13.232;2024-03-02T12:42:19;24.63;;;13.02;;
65667;SDS011;52369;52.542;13.232;2024-03-02T12:44:45;24.33;;;13.20;;
65667;SDS011;52369;52.542;13.232;2024-03-02T12:47:11;21.45;;;12.10;;
65667;SDS011;52369;52.542;13.232;2024-03-02T12:49:39;24.10;;;13.63;;
65667;SDS011;52369;52.542;13.232;2024-03-02T12:52:06;22.98;;;12.98;;
65667;SDS011;52369;52.542;13.232;2024-03-02T12:54:32;25.08;;;13.60;;
65667;SDS011;52369;52.542;13.232;2024-03-02T12:56:59;25.40;;;13.20;;
65667;SDS011;52369;52.542;13.232;2024-03-02T12:59:25;25.83;;;13.50;;
65667;SDS011;52369;52.542;13.232;2024-03-02T13:01:54;24.10;;;13.25;;
65667;SDS011;52369;52.542;13.232;2024-03-02T13:04:33;24.58;;;14.02;;
65667;SDS011;52369;52.542;13.232;2024-03-02T13:06:59;23.85;;;13.07;;
65667;SDS011;52369;52.542;13.232;2024-03-02T13:09:26;22.23;;;12.98;;
65667;SDS011;52369;52.542;13.232;2024-03-02T13:11:52;22.17;;;13.20;;
65667;SDS011;52369;52.542;13.232;2024-03-02T13:14:21;20.55;;;12.50;;
65667;SDS011;52369;52.542;13.232;2024-03-02T13:16:49;22.52;;;13.15;;
65667;SDS011;52369;52.542;13.232;2024-03-02T13:19:17;20.38;;;12.32;;
65667;SDS011;52369;52.542;13.232;2024-03-02T13:21:46;24.10;;;13.07;;
65667;SDS011;52369;52.542;13.232;2024-03-02T13:24:12;22.75;;;12.85;;
65667;SDS011;52369;52.542;13.232;2024-03-02T13:26:38;24.63;;;13.32;;
65667;SDS011;52369;52.542;13.232;2024-03-02T13:29:05;22.33;;;12.55;;
65667;SDS011;52369;52.542;13.232;2024-03-02T13:31:31;23.20;;;12.98;;
65667;SDS011;52369;52.542;13.232;2024-03-02T13:33:57;23.20;;;12.90;;
65667;SDS011;52369;52.542;13.232;2024-03-02T13:36:23;30.27;;;15.70;;
65667;SDS011;52369;52.542;13.232;2024-03-02T13:38:49;22.98;;;12.38;;
65667;SDS011;52369;52.542;13.232;2024-03-02T13:41:15;22.35;;;11.93;;
65667;SDS011;52369;52.542;13.232;2024-03-02T13:43:41;22.45;;;12.63;;
65667;SDS011;52369;52.542;13.232;2024-03-02T13:46:09;19.17;;;11.18;;
65667;SDS011;52369;52.542;13.232;2024-03-02T13:48:35;23.05;;;11.20;;
65667;SDS011;52369;52.542;13.232;2024-03-02T13:51:02;22.10;;;11.35;;
65667;SDS011;52369;52.542;13.232;2024-03-02T13:53:29;21.65;;;11.52;;
65667;SDS011;52369;52.542;13.232;2024-03-02T13:55:55;20.00;;;10.95;;
65667;SDS011;52369;52.542;13.232;2024-03-02T13:58:21;19.83;;;11.13;;
65667;SDS011;52369;52.542;13.232;2024-03-02T14:00:47;22.13;;;11.77;;
65667;SDS011;52369;52.542;13.232;2024-03-02T14:03:13;20.02;;;11.15;;
65667;SDS011;52369;52.542;13.232;2024-03-02T14:05:39;20.63;;;11.10;;
65667;SDS011;52369;52.542;13.232;2024-03-02T14:08:05;22.00;;;11.32;;
65667;SDS011;52369;52.542;13.232;2024-03-02T14:10:31;21.85;;;11.80;;
65667;SDS011;52369;52.542;13.232;2024-03-02T14:12:57;21.00;;;11.75;;